Time;durP1;ratioP1;P1;durP2;ratioP2;P2;SDS_P1;SDS_P2;PMS_P1;PMS_P2;Temp;Humidity;BMP_temperature;BMP_pressure;BME280_temperature;BME280_humidity;BME280_pressure;Samples;Min_cycle;Max_cycle;Signal;HPM_P1;HPM_P2
2023/02/22 00:00:42;;;;;;;35.75;25.27;;;14.70;1.00;;;;;;5112631;28;20078;-58
2023/02/22 00:03:14;;;;;;;35.92;25.88;;;14.70;1.00;;;;;;5112002;28;20464;-58
2023/02/22 00:05:46;;;;;;;38.08;26.75;;;14.70;1.00;;;;;;5112739;28;20047;-58
2023/02/22 00:08:15;;;;;;;38.78;26.23;;;14.70;1.00;;;;;;5114962;28;20027;-58
2023/02/22 00:10:41;;;;;;;35.05;25.13;;;14.70;1.00;;;;;;5113439;27;20031;-58
2023/02/22 00:13:09;;;;;;;33.60;23.98;;;14.50;1.00;;;;;;5114733;28;20141;-58
2023/02/22 00:15:35;;;;;;;33.33;22.92;;;14.60;1.00;;;;;;5112441;27;20384;-58
2023/02/22 00:18:03;;;;;;;32.63;22.75;;;14.60;1.00;;;;;;5111976;28;20043;-58
2023/02/22 00:20:29;;;;;;;31.42;21.70;;;14.70;1.00;;;;;;5111950;28;20108;-58
2023/02/22 00:22:55;;;;;;;28.98;19.75;;;14.70;1.00;;;;;;5113956;28;20491;-58
2023/02/22 00:25:23;;;;;;;28.10;20.23;;;14.60;1.00;;;;;;5113134;28;20119;-58
2023/02/22 00:27:51;;;;;;;28.67;20.98;;;14.60;1.00;;;;;;5114251;28;20131;-58
2023/02/22 00:30:26;;;;;;;26.17;19.88;;;14.50;1.00;;;;;;5113209;28;20102;-58
2023/02/22 00:32:54;;;;;;;24.83;18.38;;;14.60;1.00;;;;;;5112204;28;20039;-58
2023/02/22 00:35:22;;;;;;;23.83;18.65;;;14.50;1.00;;;;;;5112298;27;20032;-58
2023/02/22 00:37:49;;;;;;;24.83;19.17;;;14.50;1.00;;;;;;5113386;28;20039;-58
2023/02/22 00:40:22;;;;;;;21.38;17.33;;;14.60;1.00;;;;;;5114209;28;20023;-58
2023/02/22 00:42:48;;;;;;;20.02;14.45;;;14.60;1.00;;;;;;5111841;28;20080;-58
2023/02/22 00:45:20;;;;;;;17.67;14.60;;;14.40;1.00;;;;;;5110498;28;20036;-58
2023/02/22 00:47:45;;;;;;;20.42;14.70;;;14.40;1.00;;;;;;5114029;28;20473;-58
2023/02/22 00:50:11;;;;;;;16.23;13.80;;;14.50;1.00;;;;;;5111275;28;20048;-58
2023/02/22 00:52:37;;;;;;;17.95;14.10;;;14.60;1.00;;;;;;5113656;28;20507;-58
2023/02/22 00:55:05;;;;;;;17.23;13.10;;;14.60;1.00;;;;;;5112674;28;20028;-58
2023/02/22 00:57:33;;;;;;;17.60;13.10;;;14.50;1.00;;;;;;5110396;28;20043;-59
2023/02/22 01:00:10;;;;;;;16.38;13.25;;;14.60;1.00;;;;;;5111355;28;20082;-58
2023/02/22 01:02:37;;;;;;;16.13;13.35;;;14.50;1.00;;;;;;5112342;28;20080;-58
2023/02/22 01:05:03;;;;;;;21.80;12.90;;;14.40;1.00;;;;;;5112574;28;20035;-58
2023/02/22 01:07:29;;;;;;;18.73;13.73;;;14.50;1.00;;;;;;5112102;28;20059;-58
2023/02/22 01:09:54;;;;;;;17.65;13.80;;;14.50;1.00;;;;;;5112862;28;20043;-58
2023/02/22 01:12:20;;;;;;;18.90;13.93;;;14.50;1.00;;;;;;5113010;28;20038;-58
2023/02/22 01:15:09;;;;;;;18.33;14.25;;;14.60;1.00;;;;;;5111550;28;20035;-58
2023/02/22 01:17:35;;;;;;;18.80;14.85;;;14.60;1.00;;;;;;5113196;28;20120;-59
2023/02/22 01:20:01;;;;;;;17.73;13.38;;;14.60;1.00;;;;;;5112394;28;20500;-58
2023/02/22 01:22:27;;;;;;;18.17;14.00;;;14.60;1.00;;;;;;5113124;28;20023;-58
2023/02/22 01:24:54;;;;;;;17.02;12.45;;;14.60;1.00;;;;;;5112358;28;20045;-58
2023/02/22 01:27:19;;;;;;;21.08;14.70;;;14.60;1.00;;;;;;5108713;28;20135;-59
2023/02/22 01:29:48;;;;;;;20.27;13.40;;;14.60;1.00;;;;;;5100279;28;20107;-58
2023/02/22 01:32:14;;;;;;;18.70;14.85;;;14.60;1.00;;;;;;5109144;28;20019;-58
2023/02/22 01:34:40;;;;;;;18.70;13.05;;;14.60;1.00;;;;;;5111468;27;20023;-59
2023/02/22 01:37:06;;;;;;;18.80;14.23;;;14.60;1.00;;;;;;5105784;27;20044;-58
2023/02/22 01:39:32;;;;;;;18.80;13.90;;;14.60;1.00;;;;;;5105347;28;20349;-58
2023/02/22 01:41:58;;;;;;;16.63;12.68;;;14.50;1.00;;;;;;5111688;28;20028;-58
2023/02/22 01:44:35;;;;;;;17.83;12.75;;;14.60;1.00;;;;;;5110456;28;20124;-58
2023/02/22 01:47:04;;;;;;;15.40;12.65;;;14.60;1.00;;;;;;5109674;28;20020;-58
2023/02/22 01:49:43;;;;;;;18.70;14.32;;;14.60;1.00;;;;;;5107909;28;20362;-58
2023/02/22 01:52:14;;;;;;;18.13;13.82;;;14.60;1.00;;;;;;5111174;28;20085;-58
2023/02/22 01:54:47;;;;;;;18.63;13.98;;;14.50;1.00;;;;;;5111222;28;20553;-58
2023/02/22 01:57:24;;;;;;;17.50;13.93;;;14.50;1.00;;;;;;5111258;28;20062;-58
2023/02/22 01:59:55;;;;;;;17.88;11.93;;;14.60;1.00;;;;;;5112590;28;20022;-58
2023/02/22 02:02:23;;;;;;;19.23;12.63;;;14.60;1.00;;;;;;5110197;28;20378;-58
2023/02/22 02:08:35;;;;;;;19.13;12.52;;;14.50;1.00;;;;;;5094017;28;20067;-58
2023/02/22 02:11:04;;;;;;;17.55;12.60;;;14.50;1.00;;;;;;5111354;28;20031;-58
2023/02/22 02:13:29;;;;;;;16.77;12.65;;;14.50;1.00;;;;;;5112430;28;20073;-58
2023/02/22 02:15:55;;;;;;;16.77;12.25;;;14.60;1.00;;;;;;5110232;28;20020;-58
2023/02/22 02:18:23;;;;;;;19.40;12.32;;;14.60;1.00;;;;;;5111423;28;20036;-59
2023/02/22 02:20:57;;;;;;;48.78;32.60;;;14.60;1.00;;;;;;5112165;28;20051;-58
2023/02/22 02:23:41;;;;;;;51.38;36.25;;;14.50;1.00;;;;;;5111727;28;20073;-58
2023/02/22 02:26:34;;;;;;;55.13;38.42;;;14.50;1.00;;;;;;5110312;28;20373;-58
2023/02/22 02:29:18;;;;;;;55.88;39.85;;;14.40;1.00;;;;;;5110822;28;20550;-58
2023/02/22 02:32:27;;;;;;;60.53;41.63;;;14.40;1.00;;;;;;5101487;28;20161;-58
2023/02/22 02:35:28;;;;;;;60.42;42.90;;;14.40;1.00;;;;;;5040679;28;20037;-59
2023/02/22 02:38:02;;;;;;;60.65;42.47;;;14.30;1.00;;;;;;5098542;28;20150;-59
2023/02/22 02:40:40;;;;;;;65.20;46.30;;;14.30;1.00;;;;;;5110409;28;20020;-58
2023/02/22 02:43:17;;;;;;;63.35;44.58;;;14.30;1.00;;;;;;5111500;28;20460;-58
2023/02/22 02:45:56;;;;;;;64.75;44.95;;;14.40;1.00;;;;;;5104501;28;20036;-58
2023/02/22 02:48:26;;;;;;;67.45;48.05;;;14.30;1.00;;;;;;5109986;28;20453;-58
2023/02/22 02:50:55;;;;;;;70.95;47.67;;;14.30;1.00;;;;;;5108828;28;20050;-58
2023/02/22 02:53:26;;;;;;;69.72;49.78;;;14.30;1.00;;;;;;5111255;28;20027;-58
2023/02/22 02:55:52;;;;;;;72.60;49.08;;;14.30;1.00;;;;;;5109229;28;20038;-58
2023/02/22 02:58:21;;;;;;;71.10;49.45;;;14.30;1.00;;;;;;5111817;28;20031;-58
2023/02/22 03:00:50;;;;;;;77.97;52.00;;;14.20;1.00;;;;;;5111671;28;20052;-58
2023/02/22 03:03:36;;;;;;;75.60;50.75;;;14.30;1.00;;;;;;5106997;28;20043;-58
2023/02/22 03:06:29;;;;;;;70.28;50.10;;;14.30;1.00;;;;;;5113995;28;20050;-58
2023/02/22 03:09:29;;;;;;;81.38;54.35;;;14.20;1.00;;;;;;5116040;28;20024;-58
2023/02/22 03:12:20;;;;;;;81.80;55.38;;;14.20;1.00;;;;;;5109024;28;20042;-59
2023/02/22 03:14:59;;;;;;;83.07;56.05;;;14.10;1.00;;;;;;5115903;28;20019;-58
2023/02/22 03:17:46;;;;;;;88.10;58.05;;;14.20;1.00;;;;;;5110463;28;20094;-58
2023/02/22 03:20:30;;;;;;;90.43;59.88;;;14.10;1.00;;;;;;5115494;28;20504;-59
2023/02/22 03:23:19;;;;;;;90.82;58.70;;;14.20;1.00;;;;;;5114819;28;20099;-59
2023/02/22 03:25:50;;;;;;;92.32;62.72;;;14.20;1.00;;;;;;5112567;28;20040;-58
2023/02/22 03:28:19;;;;;;;97.47;63.95;;;14.10;1.00;;;;;;5113960;28;20026;-58
2023/02/22 03:31:09;;;;;;;99.40;65.03;;;14.10;1.00;;;;;;5112478;28;20024;-58
2023/02/22 03:33:53;;;;;;;110.22;69.88;;;14.10;1.00;;;;;;5103112;27;20726;-58
2023/02/22 03:36:28;;;;;;;98.87;68.73;;;14.00;1.00;;;;;;5099046;28;20427;-58
2023/02/22 03:38:57;;;;;;;105.47;70.47;;;14.10;1.00;;;;;;5115128;28;20122;-59
2023/02/22 03:41:25;;;;;;;111.65;74.90;;;14.00;1.00;;;;;;5100548;28;20046;-58
2023/02/22 03:43:58;;;;;;;113.93;74.43;;;14.00;1.00;;;;;;5100649;28;20502;-58
2023/02/22 03:46:28;;;;;;;114.95;73.75;;;14.00;1.00;;;;;;5113034;28;20051;-59
2023/02/22 03:48:59;;;;;;;113.82;75.28;;;13.90;1.00;;;;;;5114976;27;20051;-58
2023/02/22 03:51:26;;;;;;;114.53;74.00;;;13.90;1.00;;;;;;5113678;28;20095;-59
2023/02/22 03:53:52;;;;;;;115.13;75.32;;;13.80;1.00;;;;;;5114885;28;20464;-58
2023/02/22 03:56:46;;;;;;;114.20;74.57;;;13.90;1.00;;;;;;5113678;28;20449;-58
2023/02/22 03:59:12;;;;;;;121.10;78.18;;;13.90;1.00;;;;;;5114588;28;20039;-58
2023/02/22 04:01:37;;;;;;;115.32;75.63;;;13.90;1.00;;;;;;5109121;28;20032;-58
2023/02/22 04:04:03;;;;;;;115.40;76.78;;;13.90;1.00;;;;;;5105851;28;20089;-58
2023/02/22 04:06:30;;;;;;;120.60;78.55;;;13.90;1.00;;;;;;5111675;28;20031;-58
2023/02/22 04:15:40;;;;;;;127.65;82.07;;;13.80;1.00;;;;;;5097494;28;20051;-58
2023/02/22 04:18:05;;;;;;;129.20;82.43;;;13.80;1.00;;;;;;5110703;28;20475;-58
2023/02/22 04:20:33;;;;;;;131.57;84.68;;;13.80;1.00;;;;;;5113176;28;20092;-58
2023/02/22 04:22:59;;;;;;;130.68;84.10;;;13.70;1.00;;;;;;5114258;28;20020;-58
2023/02/22 04:25:24;;;;;;;133.63;83.95;;;13.70;1.00;;;;;;5114233;28;20088;-58
2023/02/22 04:27:50;;;;;;;131.00;86.47;;;13.80;1.00;;;;;;5114263;28;20031;-59
2023/02/22 04:30:18;;;;;;;135.60;87.85;;;13.70;1.00;;;;;;5114115;28;20020;-59
2023/02/22 04:32:43;;;;;;;135.95;84.18;;;13.70;1.00;;;;;;5114786;28;20050;-59
2023/02/22 04:35:09;;;;;;;135.63;87.22;;;13.70;1.00;;;;;;5114192;28;20020;-58
2023/02/22 04:37:35;;;;;;;140.38;87.82;;;13.70;1.00;;;;;;5114224;28;20597;-59
2023/02/22 04:40:02;;;;;;;132.88;87.07;;;13.70;1.00;;;;;;5114205;28;20423;-58
2023/02/22 04:42:28;;;;;;;141.98;89.00;;;13.60;1.00;;;;;;5114231;28;20036;-59
2023/02/22 04:44:53;;;;;;;146.43;90.72;;;13.70;1.00;;;;;;5113756;28;20089;-58
2023/02/22 04:47:19;;;;;;;143.55;88.85;;;13.60;1.00;;;;;;5113780;28;20027;-58
2023/02/22 04:49:45;;;;;;;142.20;89.85;;;13.60;1.00;;;;;;5113738;28;20067;-58
2023/02/22 04:52:11;;;;;;;137.02;89.85;;;13.50;1.00;;;;;;5113770;28;20028;-59
2023/02/22 04:54:36;;;;;;;140.82;90.88;;;13.60;1.00;;;;;;5113663;28;20460;-58
2023/02/22 04:57:02;;;;;;;140.80;89.03;;;13.50;1.00;;;;;;5113452;28;20032;-58
2023/02/22 04:59:28;;;;;;;141.00;88.38;;;13.60;1.00;;;;;;5113704;28;20103;-58
2023/02/22 05:01:54;;;;;;;144.15;89.78;;;13.50;1.00;;;;;;5113572;28;20509;-58
2023/02/22 05:04:20;;;;;;;143.32;89.00;;;13.50;1.00;;;;;;5113936;28;20035;-58
2023/02/22 05:06:46;;;;;;;138.55;92.32;;;13.50;1.00;;;;;;5113771;27;20016;-58
2023/02/22 05:09:12;;;;;;;145.43;90.82;;;13.50;1.00;;;;;;5113632;28;20031;-58
2023/02/22 05:11:38;;;;;;;139.13;88.32;;;13.40;1.00;;;;;;5113856;28;20023;-58
2023/02/22 05:14:03;;;;;;;147.82;89.55;;;13.50;1.00;;;;;;5113384;28;20062;-58
2023/02/22 05:16:29;;;;;;;141.77;88.88;;;13.40;1.00;;;;;;5113355;28;20420;-58
2023/02/22 05:18:56;;;;;;;137.90;87.35;;;13.40;1.00;;;;;;5113274;27;20051;-58
2023/02/22 05:21:22;;;;;;;144.48;88.57;;;13.40;1.00;;;;;;5113443;28;20108;-58
2023/02/22 05:23:48;;;;;;;138.60;88.13;;;13.50;1.00;;;;;;5112332;28;20032;-58
2023/02/22 05:26:14;;;;;;;149.90;90.75;;;13.50;1.00;;;;;;5113381;28;20030;-58
2023/02/22 05:28:39;;;;;;;145.68;88.45;;;13.50;1.00;;;;;;5113320;28;20019;-58
2023/02/22 05:31:08;;;;;;;145.25;89.78;;;13.40;1.00;;;;;;5113065;28;20015;-58
2023/02/22 05:33:34;;;;;;;139.88;89.20;;;13.50;1.00;;;;;;5111769;28;20035;-58
2023/02/22 05:36:00;;;;;;;148.82;88.28;;;13.40;1.00;;;;;;5100988;28;20053;-58
2023/02/22 05:38:25;;;;;;;142.57;90.80;;;13.40;1.00;;;;;;5104738;28;20040;-58
2023/02/22 05:40:51;;;;;;;146.15;90.00;;;13.40;1.00;;;;;;5106195;28;20397;-58
2023/02/22 05:43:17;;;;;;;142.23;88.70;;;13.40;1.00;;;;;;5113077;28;20063;-58
2023/02/22 05:45:42;;;;;;;142.35;90.07;;;13.40;1.00;;;;;;5112588;28;20110;-58
2023/02/22 05:48:08;;;;;;;144.05;91.15;;;13.40;1.00;;;;;;5112677;28;20030;-58
2023/02/22 05:50:34;;;;;;;144.25;89.95;;;13.40;1.00;;;;;;5112605;28;20121;-58
2023/02/22 05:53:00;;;;;;;144.73;89.63;;;13.50;1.00;;;;;;5112988;28;20055;-58
2023/02/22 05:55:26;;;;;;;145.10;88.90;;;13.40;1.00;;;;;;5112803;28;20472;-58
2023/02/22 05:57:52;;;;;;;142.68;87.13;;;13.40;1.00;;;;;;5111020;28;20032;-58
2023/02/22 06:00:27;;;;;;;135.52;87.20;;;13.40;1.00;;;;;;5112501;28;20018;-58
2023/02/22 06:03:11;;;;;;;140.63;87.78;;;13.40;1.00;;;;;;5112679;28;20350;-59
2023/02/22 06:05:37;;;;;;;140.57;86.80;;;13.30;1.00;;;;;;5112535;28;20077;-59
2023/02/22 06:08:04;;;;;;;136.65;87.13;;;13.30;1.00;;;;;;5112555;28;20028;-58
2023/02/22 06:10:30;;;;;;;140.68;88.00;;;13.30;1.00;;;;;;5112389;28;20047;-58
2023/02/22 06:12:56;;;;;;;140.15;85.40;;;13.40;1.00;;;;;;5112669;28;20490;-58
2023/02/22 06:15:23;;;;;;;142.98;88.10;;;13.40;1.00;;;;;;5112519;28;20110;-58
2023/02/22 06:17:50;;;;;;;142.90;87.18;;;13.40;1.00;;;;;;5112382;28;20031;-58
2023/02/22 06:20:18;;;;;;;146.20;92.07;;;13.40;1.00;;;;;;5112269;28;20492;-58
2023/02/22 06:26:05;;;;;;;137.02;87.45;;;13.40;1.00;;;;;;5096669;28;20085;-58
2023/02/22 06:28:31;;;;;;;143.52;87.90;;;13.30;1.00;;;;;;5103291;28;20342;-58
2023/02/22 06:30:56;;;;;;;139.25;86.30;;;13.30;1.00;;;;;;5112096;28;20026;-58
2023/02/22 06:33:22;;;;;;;139.75;88.40;;;13.40;1.00;;;;;;5112539;28;20019;-58
2023/02/22 06:35:48;;;;;;;136.88;84.13;;;13.40;1.00;;;;;;5107585;28;20032;-58
2023/02/22 06:38:24;;;;;;;141.27;86.05;;;13.40;1.00;;;;;;5108737;28;20044;-58
2023/02/22 06:40:50;;;;;;;141.40;87.03;;;13.40;1.00;;;;;;5101955;28;20365;-58
2023/02/22 06:43:16;;;;;;;140.38;87.32;;;13.40;1.00;;;;;;5116460;28;20027;-58
2023/02/22 06:45:42;;;;;;;143.38;87.25;;;13.40;1.00;;;;;;5101455;28;20107;-58
2023/02/22 06:48:08;;;;;;;138.82;87.25;;;13.40;1.00;;;;;;5116145;28;20169;-58
2023/02/22 06:50:34;;;;;;;142.88;87.35;;;13.40;1.00;;;;;;5116023;28;20063;-58
2023/02/22 06:53:00;;;;;;;139.40;86.72;;;13.40;1.00;;;;;;5114629;28;20030;-58
2023/02/22 06:55:30;;;;;;;142.35;88.47;;;13.40;1.00;;;;;;5115925;28;20027;-58
2023/02/22 06:57:56;;;;;;;143.23;87.60;;;13.40;1.00;;;;;;5115772;28;20043;-58
2023/02/22 07:00:24;;;;;;;142.93;88.20;;;13.40;1.00;;;;;;5112615;28;20058;-58
2023/02/22 07:02:51;;;;;;;147.13;89.03;;;13.40;1.00;;;;;;5115793;28;20031;-58
2023/02/22 07:05:19;;;;;;;138.13;86.82;;;13.40;1.00;;;;;;5115835;28;20024;-59
2023/02/22 07:07:46;;;;;;;141.30;86.75;;;13.40;1.00;;;;;;5115918;28;20463;-47
2023/02/22 07:10:19;;;;;;;140.80;88.18;;;13.40;1.00;;;;;;5115832;27;20028;-51
2023/02/22 07:12:45;;;;;;;136.35;84.80;;;13.40;1.00;;;;;;5116032;28;20358;-49
2023/02/22 07:15:12;;;;;;;142.75;86.18;;;13.50;1.00;;;;;;5116185;28;20073;-48
2023/02/22 07:17:40;;;;;;;145.60;88.93;;;13.40;1.00;;;;;;5114379;28;20039;-48
2023/02/22 07:20:06;;;;;;;135.85;83.22;;;13.40;1.00;;;;;;5115688;28;20019;-49
2023/02/22 07:22:32;;;;;;;142.40;87.72;;;13.40;1.00;;;;;;5106827;28;20024;-47
2023/02/22 07:24:58;;;;;;;149.15;93.50;;;13.50;1.00;;;;;;5111035;28;20374;-47
2023/02/22 07:27:24;;;;;;;143.70;89.20;;;13.40;1.00;;;;;;5114343;28;20027;-47
2023/02/22 07:29:50;;;;;;;142.38;87.55;;;13.50;1.00;;;;;;5111080;28;20330;-49
2023/02/22 07:32:15;;;;;;;138.30;84.65;;;13.50;1.00;;;;;;5114132;28;20035;-51
2023/02/22 07:34:41;;;;;;;146.05;88.78;;;13.50;1.00;;;;;;5114096;28;20028;-49
2023/02/22 07:37:08;;;;;;;135.57;85.57;;;13.50;1.00;;;;;;5115043;28;20031;-51
2023/02/22 07:39:33;;;;;;;135.07;84.40;;;13.50;1.00;;;;;;5113946;28;20455;-46
2023/02/22 07:41:59;;;;;;;139.75;87.35;;;13.50;1.00;;;;;;5113602;28;20039;-48
2023/02/22 07:44:25;;;;;;;142.75;87.03;;;13.50;1.00;;;;;;5115264;28;20024;-48
2023/02/22 07:46:51;;;;;;;136.57;85.88;;;13.50;1.00;;;;;;5114012;28;20476;-47
2023/02/22 07:49:16;;;;;;;135.13;85.25;;;13.50;1.00;;;;;;5110086;28;20232;-52
2023/02/22 07:51:42;;;;;;;137.35;85.90;;;13.50;1.00;;;;;;5114841;28;20111;-46
2023/02/22 07:54:08;;;;;;;137.25;86.10;;;13.50;1.00;;;;;;5113317;28;20122;-52
2023/02/22 07:56:33;;;;;;;140.60;85.22;;;13.50;1.00;;;;;;5107508;28;20101;-48
2023/02/22 07:59:00;;;;;;;144.38;88.13;;;13.50;1.00;;;;;;5114067;28;20054;-46
2023/02/22 08:01:26;;;;;;;136.90;87.00;;;13.50;1.00;;;;;;5114931;28;20076;-46
2023/02/22 08:03:52;;;;;;;137.90;85.18;;;13.60;1.00;;;;;;5115022;28;20486;-46
2023/02/22 08:06:19;;;;;;;140.70;88.88;;;13.60;1.00;;;;;;5115065;28;20103;-48
2023/02/22 08:08:45;;;;;;;142.88;88.65;;;13.60;1.00;;;;;;5114687;28;20464;-46
2023/02/22 08:11:11;;;;;;;134.10;84.97;;;13.60;1.00;;;;;;5100260;28;20026;-47
2023/02/22 08:13:38;;;;;;;150.10;88.63;;;13.60;1.00;;;;;;5115622;28;20019;-47
2023/02/22 08:16:04;;;;;;;138.50;86.03;;;13.60;1.00;;;;;;5110958;28;20027;-46
2023/02/22 08:18:29;;;;;;;136.68;85.05;;;13.60;1.00;;;;;;5110367;28;20081;-46
2023/02/22 08:20:55;;;;;;;138.82;87.22;;;13.60;1.00;;;;;;5107465;28;20054;-48
2023/02/22 08:23:24;;;;;;;139.85;86.45;;;13.70;1.00;;;;;;5114827;28;20095;-47
2023/02/22 08:25:50;;;;;;;148.73;86.53;;;13.70;1.00;;;;;;5114578;28;20019;-47
2023/02/22 08:28:19;;;;;;;135.15;84.88;;;13.70;1.00;;;;;;5114860;28;20369;-46
2023/02/22 08:30:45;;;;;;;144.23;86.63;;;13.70;1.00;;;;;;5114715;28;20418;-46
2023/02/22 08:33:17;;;;;;;140.80;86.82;;;13.70;1.00;;;;;;5114500;28;20053;-48
2023/02/22 08:35:43;;;;;;;142.23;86.95;;;13.70;1.00;;;;;;5114654;28;20184;-46
2023/02/22 08:38:17;;;;;;;138.98;84.78;;;13.70;1.00;;;;;;5112913;28;20035;-47
2023/02/22 08:40:43;;;;;;;140.25;86.90;;;13.70;1.00;;;;;;5114678;28;20048;-47
2023/02/22 08:43:09;;;;;;;135.60;86.03;;;13.80;1.00;;;;;;5114122;28;20102;-47
2023/02/22 08:45:34;;;;;;;141.48;85.68;;;13.80;1.00;;;;;;5114454;28;20020;-47
2023/02/22 08:48:00;;;;;;;138.75;84.60;;;13.80;1.00;;;;;;5112831;28;20064;-46
2023/02/22 08:50:32;;;;;;;153.30;90.00;;;13.80;1.00;;;;;;5113984;28;20043;-47
2023/02/22 08:53:00;;;;;;;142.65;87.80;;;13.80;1.00;;;;;;5114095;28;20034;-48
2023/02/22 08:55:30;;;;;;;146.95;87.68;;;13.80;1.00;;;;;;5113879;28;20030;-47
2023/02/22 08:57:56;;;;;;;140.13;87.70;;;13.80;1.00;;;;;;5114059;28;20035;-46
2023/02/22 09:00:24;;;;;;;140.40;85.03;;;13.80;1.00;;;;;;5113924;28;20015;-47
2023/02/22 09:02:50;;;;;;;134.75;87.32;;;13.80;1.00;;;;;;5114187;28;20367;-47
2023/02/22 09:05:16;;;;;;;133.63;84.68;;;13.90;1.00;;;;;;5112351;28;20026;-47
2023/02/22 09:07:42;;;;;;;133.27;84.00;;;13.90;1.00;;;;;;5112487;28;20102;-47
2023/02/22 09:10:17;;;;;;;136.75;85.97;;;13.90;1.00;;;;;;5113743;28;20069;-47
2023/02/22 09:13:30;;;;;;;135.70;84.15;;;13.90;1.00;;;;;;5100750;28;20107;-47
2023/02/22 09:15:56;;;;;;;137.57;86.90;;;13.90;1.00;;;;;;5101693;28;20039;-47
2023/02/22 09:18:21;;;;;;;139.15;85.53;;;13.90;1.00;;;;;;5113392;28;20028;-47
2023/02/22 09:21:00;;;;;;;133.75;86.15;;;14.00;1.00;;;;;;5112227;28;20015;-47
2023/02/22 09:23:29;;;;;;;141.07;86.53;;;13.90;1.00;;;;;;5111339;28;20039;-48
2023/02/22 09:25:55;;;;;;;136.77;86.22;;;14.00;1.00;;;;;;5113386;28;20366;-50
2023/02/22 09:28:20;;;;;;;138.07;84.57;;;14.00;1.00;;;;;;5110250;28;20021;-50
2023/02/22 09:30:46;;;;;;;135.85;84.63;;;14.00;1.00;;;;;;5102064;28;20055;-47
2023/02/22 09:33:14;;;;;;;129.90;84.38;;;14.10;1.00;;;;;;5113396;28;20550;-49
2023/02/22 09:35:41;;;;;;;139.07;87.75;;;14.00;1.00;;;;;;5113314;28;20023;-48
2023/02/22 09:38:09;;;;;;;134.15;84.88;;;13.90;1.00;;;;;;5113245;28;20039;-49
2023/02/22 09:40:43;;;;;;;134.38;84.82;;;14.00;1.00;;;;;;5113506;28;20023;-47
2023/02/22 09:43:29;;;;;;;138.73;88.47;;;14.00;1.00;;;;;;5113490;27;20035;-47
2023/02/22 09:46:19;;;;;;;129.25;80.38;;;14.00;1.00;;;;;;5113158;28;20031;-49
2023/02/22 09:49:12;;;;;;;126.82;81.30;;;13.90;1.00;;;;;;5112922;28;20036;-47
2023/02/22 09:52:08;;;;;;;126.63;82.28;;;14.00;1.00;;;;;;5112834;28;20043;-50
2023/02/22 09:54:37;;;;;;;126.03;80.35;;;13.90;1.00;;;;;;5104522;28;20023;-52
2023/02/22 09:57:11;;;;;;;126.25;81.07;;;14.00;1.00;;;;;;5112735;28;20031;-53
2023/02/22 09:59:56;;;;;;;124.78;80.15;;;14.10;1.00;;;;;;5111540;28;20067;-52
2023/02/22 10:02:33;;;;;;;;;;;14.10;1.00;;;;;;5113247;28;20035;-52
2023/02/22 10:05:16;;;;;;;128.05;79.95;;;14.10;1.00;;;;;;5110903;28;19904;-52
2023/02/22 10:07:58;;;;;;;127.68;82.43;;;14.10;1.00;;;;;;5100724;28;20016;-51
2023/02/22 10:10:32;;;;;;;127.57;81.53;;;14.20;1.00;;;;;;5112243;28;20043;-52
2023/02/22 10:13:20;;;;;;;128.68;81.55;;;14.20;1.00;;;;;;5113009;28;20024;-51
2023/02/22 10:16:09;;;;;;;125.68;81.60;;;14.20;1.00;;;;;;5112404;28;20411;-51
2023/02/22 10:19:10;;;;;;;130.75;81.07;;;14.30;1.00;;;;;;5112906;28;20035;-50
2023/02/22 10:21:54;;;;;;;129.63;83.38;;;14.30;1.00;;;;;;5112796;28;20106;-52
2023/02/22 10:24:38;;;;;;;126.73;80.93;;;14.30;1.00;;;;;;5112306;28;20016;-53
2023/02/22 10:27:11;;;;;;;125.53;81.78;;;14.30;1.00;;;;;;5111357;28;20031;-53
2023/02/22 10:29:48;;;;;;;131.90;84.00;;;14.30;1.00;;;;;;5098930;28;20369;-48
2023/02/22 10:32:19;;;;;;;132.38;82.15;;;14.40;1.00;;;;;;5105438;28;20036;-52
2023/02/22 10:34:48;;;;;;;127.50;83.30;;;14.30;1.00;;;;;;5099196;28;20108;-50
2023/02/22 10:37:47;;;;;;;130.07;82.53;;;14.40;1.00;;;;;;5110783;28;20081;-48
2023/02/22 10:40:30;;;;;;;138.38;85.05;;;14.30;1.00;;;;;;5102042;28;20028;-47
2023/02/22 10:43:03;;;;;;;127.78;81.65;;;14.40;1.00;;;;;;5110494;28;20032;-48
2023/02/22 10:45:31;;;;;;;131.27;86.80;;;14.50;1.00;;;;;;5099302;28;20069;-46
2023/02/22 10:48:10;;;;;;;135.40;83.60;;;14.50;1.00;;;;;;5113025;28;20423;-52
2023/02/22 10:50:39;;;;;;;136.60;85.35;;;14.50;1.00;;;;;;5099280;28;20040;-50
2023/02/22 10:53:06;;;;;;;130.27;80.70;;;14.50;1.00;;;;;;5112597;28;20123;-55
2023/02/22 10:55:31;;;;;;;125.30;83.22;;;14.60;1.00;;;;;;5112352;28;20094;-52
2023/02/22 10:58:20;;;;;;;124.43;80.78;;;14.60;1.00;;;;;;5112198;28;20127;-52
2023/02/22 11:00:46;;;;;;;123.75;82.03;;;14.60;1.00;;;;;;5111705;28;20070;-61
2023/02/22 11:03:21;;;;;;;126.35;80.47;;;14.70;1.00;;;;;;5111549;28;20382;-62
2023/02/22 11:05:48;;;;;;;126.72;81.05;;;14.50;1.00;;;;;;5097607;28;20461;-58
2023/02/22 11:08:22;;;;;;;118.80;78.30;;;14.70;1.00;;;;;;5111921;28;20066;-56
2023/02/22 11:10:59;;;;;;;125.30;79.60;;;14.70;1.00;;;;;;5111827;28;20498;-56
2023/02/22 11:13:28;;;;;;;121.20;77.05;;;14.80;1.00;;;;;;5111925;28;20024;-55
2023/02/22 11:16:02;;;;;;;120.43;75.93;;;14.80;1.00;;;;;;5105482;28;20063;-57
2023/02/22 11:18:32;;;;;;;118.93;76.38;;;14.90;1.00;;;;;;5111786;28;20115;-56
2023/02/22 11:21:11;;;;;;;115.00;74.47;;;14.90;1.00;;;;;;5110931;28;20061;-57
2023/02/22 11:23:40;;;;;;;121.78;77.03;;;14.90;1.00;;;;;;5115098;28;20032;-57
2023/02/22 11:26:13;;;;;;;121.95;75.28;;;14.90;1.00;;;;;;5115539;28;20024;-58
2023/02/22 11:28:54;;;;;;;113.25;76.63;;;15.00;1.00;;;;;;5115533;28;20027;-58
2023/02/22 11:31:24;;;;;;;126.80;77.88;;;15.10;1.00;;;;;;5115910;28;20012;-58
2023/02/22 11:34:02;;;;;;;119.95;78.47;;;15.20;1.00;;;;;;5115291;28;20376;-58
2023/02/22 11:36:39;;;;;;;116.30;77.00;;;15.30;1.00;;;;;;5115175;28;20397;-58
2023/02/22 11:39:23;;;;;;;121.45;81.10;;;15.30;1.00;;;;;;5113784;28;20389;-57
2023/02/22 11:41:49;;;;;;;112.28;74.65;;;15.30;1.00;;;;;;5115145;28;20099;-57
2023/02/22 11:44:31;;;;;;;112.38;75.03;;;15.30;1.00;;;;;;5115456;28;20023;-58
2023/02/22 11:47:05;;;;;;;116.57;74.80;;;15.40;1.00;;;;;;5115219;27;20554;-58
2023/02/22 11:49:34;;;;;;;122.72;76.65;;;15.40;1.00;;;;;;5115104;28;20023;-58
2023/02/22 11:52:20;;;;;;;115.30;74.05;;;15.50;1.00;;;;;;5115289;28;20118;-57
2023/02/22 11:55:08;;;;;;;104.70;69.70;;;15.60;1.00;;;;;;5115200;28;20032;-57
2023/02/22 11:57:49;;;;;;;116.63;76.93;;;15.60;1.00;;;;;;5100805;28;20480;-57
2023/02/22 12:00:49;;;;;;;106.80;71.40;;;15.60;1.00;;;;;;5111523;28;20015;-57
2023/02/22 12:03:17;;;;;;;105.30;69.78;;;15.70;1.00;;;;;;5114975;28;20069;-57
2023/02/22 12:06:05;;;;;;;110.57;72.90;;;15.70;1.00;;;;;;5100619;28;20123;-57
2023/02/22 12:08:31;;;;;;;106.57;70.18;;;15.70;1.00;;;;;;5100652;28;20107;-57
2023/02/22 12:11:08;;;;;;;104.68;69.82;;;15.80;1.00;;;;;;5114898;28;20131;-58
2023/02/22 12:13:38;;;;;;;106.03;73.28;;;15.90;1.00;;;;;;5114708;28;20034;-58
2023/02/22 12:16:33;;;;;;;102.88;69.57;;;16.00;1.00;;;;;;5115007;28;20374;-58
2023/02/22 12:19:19;;;;;;;101.03;68.97;;;16.00;1.00;;;;;;5068687;28;20044;-59
2023/02/22 12:21:51;;;;;;;103.28;69.40;;;16.00;1.00;;;;;;5114912;28;20024;-57
2023/02/22 12:24:32;;;;;;;97.60;68.07;;;16.10;1.00;;;;;;5114680;28;20012;-58
2023/02/22 12:27:05;;;;;;;102.20;67.70;;;16.10;1.00;;;;;;5114646;27;20024;-58
2023/02/22 12:29:48;;;;;;;100.32;68.75;;;16.20;1.00;;;;;;5114182;28;20023;-58
2023/02/22 12:32:29;;;;;;;100.10;67.60;;;16.20;1.00;;;;;;5114061;27;20020;-57
2023/02/22 12:35:04;;;;;;;90.88;60.53;;;16.30;1.00;;;;;;5114754;28;20031;-58
2023/02/22 12:37:35;;;;;;;;;;;16.10;1.00;;;;;;5110565;28;20032;-59
2023/02/22 12:40:07;;;;;;;90.13;58.60;;;16.20;1.00;;;;;;5114389;28;19911;-58
2023/02/22 12:42:35;;;;;;;91.38;59.47;;;16.10;1.00;;;;;;5114033;28;20024;-58
2023/02/22 12:45:15;;;;;;;80.68;55.97;;;16.20;1.00;;;;;;5114265;28;20028;-58
2023/02/22 12:47:48;;;;;;;76.55;50.88;;;16.10;1.00;;;;;;5113852;28;20020;-58
2023/02/22 12:50:27;;;;;;;73.18;50.65;;;16.30;1.00;;;;;;5113638;28;20071;-57
2023/02/22 12:52:58;;;;;;;77.05;51.13;;;16.20;1.00;;;;;;5113963;28;20042;-58
2023/02/22 12:55:32;;;;;;;69.80;46.65;;;16.30;1.00;;;;;;5113568;28;20051;-55
2023/02/22 12:58:08;;;;;;;84.60;52.40;;;16.40;1.00;;;;;;5113892;28;20036;-57
2023/02/22 13:00:43;;;;;;;69.72;46.33;;;16.30;1.00;;;;;;5113626;28;20441;-57
2023/02/22 13:03:26;;;;;;;67.22;42.50;;;16.30;1.00;;;;;;5113740;28;20032;-58
2023/02/22 13:06:27;;;;;;;84.70;55.60;;;16.30;1.00;;;;;;5098915;28;20037;-58